createdAt,value
2023-04-05T00:02:21.270Z,98.50
2023-04-05T00:04:52.171Z,98.50
2023-04-05T00:07:21.449Z,98.50
2023-04-05T00:09:48.854Z,98.50
2023-04-05T00:12:16.096Z,98.50
2023-04-05T00:14:42.782Z,98.50
2023-04-05T00:17:11.159Z,98.50
2023-04-05T00:19:39.450Z,98.50
2023-04-05T00:22:06.256Z,98.50
2023-04-05T00:24:33.959Z,98.50
2023-04-05T00:27:01.415Z,98.50
2023-04-05T00:29:28.308Z,98.50
2023-04-05T00:31:56.247Z,98.50
2023-04-05T00:34:23.002Z,98.50
2023-04-05T00:36:49.828Z,98.50
2023-04-05T00:39:16.575Z,98.50
2023-04-05T00:41:46.291Z,98.50
2023-04-05T00:44:14.788Z,98.50
2023-04-05T00:46:42.052Z,98.50
2023-04-05T00:49:09.556Z,98.50
2023-04-05T00:51:38.020Z,98.50
2023-04-05T00:54:05.240Z,98.50
2023-04-05T00:56:32.831Z,98.50
2023-04-05T00:58:59.680Z,98.50
2023-04-05T01:01:28.078Z,98.50
2023-04-05T01:04:03.512Z,98.50
2023-04-05T01:06:33.938Z,98.50
2023-04-05T01:09:10.067Z,98.50
2023-04-05T01:11:40.399Z,98.50
2023-04-05T01:14:07.182Z,98.50
2023-04-05T01:16:33.917Z,98.50
2023-04-05T01:19:00.676Z,98.50
2023-04-05T01:21:39.241Z,98.50
2023-04-05T01:24:27.022Z,98.50
2023-04-05T01:27:19.403Z,98.50
2023-04-05T01:30:04.358Z,98.50
2023-04-05T01:32:49.596Z,98.50
2023-04-05T01:35:29.357Z,98.50
2023-04-05T01:38:00.802Z,98.50
2023-04-05T01:40:28.442Z,98.50
2023-04-05T01:42:55.241Z,98.50
2023-04-05T01:45:22.167Z,98.50
2023-04-05T01:47:48.973Z,98.50
2023-04-05T01:50:15.930Z,98.50
2023-04-05T01:52:42.608Z,98.50
2023-04-05T01:55:09.428Z,98.50
2023-04-05T01:57:36.105Z,98.50
2023-04-05T02:00:03.008Z,98.50
2023-04-05T02:02:29.889Z,98.50
2023-04-05T02:04:56.645Z,98.50
2023-04-05T02:07:24.377Z,98.50
2023-04-05T02:09:51.245Z,98.50
2023-04-05T02:12:18.014Z,98.50
2023-04-05T02:14:44.881Z,98.50
2023-04-05T02:17:11.504Z,98.50
2023-04-05T02:19:40.950Z,98.50
2023-04-05T02:22:08.337Z,98.50
2023-04-05T02:24:35.303Z,98.50
2023-04-05T02:27:02.129Z,98.50
2023-04-05T02:29:28.959Z,98.50
2023-04-05T02:31:55.986Z,98.50
2023-04-05T02:34:22.785Z,98.50
2023-04-05T02:36:53.160Z,98.50
2023-04-05T02:39:20.717Z,98.50
2023-04-05T02:41:47.387Z,98.50
2023-04-05T02:44:14.239Z,98.50
2023-04-05T02:46:41.034Z,98.50
2023-04-05T02:49:07.915Z,98.50
2023-04-05T02:51:34.714Z,98.50
2023-04-05T02:54:04.450Z,98.50
2023-04-05T02:56:31.461Z,98.50
2023-04-05T02:58:58.195Z,98.50
2023-04-05T03:01:25.502Z,98.50
2023-04-05T03:03:52.486Z,98.50
2023-04-05T03:06:20.761Z,98.50
2023-04-05T03:08:49.161Z,98.50
2023-04-05T03:11:16.094Z,98.50
2023-04-05T03:13:42.781Z,98.50
2023-04-05T03:16:09.499Z,98.50
2023-04-05T03:18:36.463Z,98.50
2023-04-05T03:21:04.427Z,98.50
2023-04-05T03:23:32.099Z,98.50
2023-04-05T03:26:02.990Z,98.50
2023-04-05T03:28:32.305Z,98.50
2023-04-05T03:30:59.195Z,98.50
2023-04-05T03:33:26.001Z,98.50
2023-04-05T03:35:53.111Z,98.50
2023-04-05T03:38:19.851Z,98.50
2023-04-05T03:40:46.728Z,98.50
2023-04-05T03:43:13.846Z,98.50
2023-04-05T03:45:40.837Z,98.50
2023-04-05T03:48:07.797Z,98.50
2023-04-05T03:50:34.496Z,98.50
2023-04-05T03:53:01.504Z,98.50
2023-04-05T03:55:28.265Z,98.50
2023-04-05T03:57:55.015Z,98.50
2023-04-05T04:00:23.866Z,98.50
2023-04-05T04:02:52.618Z,98.50
2023-04-05T04:05:21.404Z,98.50
2023-04-05T04:07:48.424Z,98.50
2023-04-05T04:10:19.616Z,98.50
2023-04-05T04:12:46.333Z,98.50
2023-04-05T04:15:13.219Z,98.50
2023-04-05T04:17:40.091Z,98.50
2023-04-05T04:20:11.282Z,98.50
2023-04-05T04:22:40.374Z,98.50
2023-04-05T04:25:10.585Z,98.50
2023-04-05T04:27:39.705Z,98.50
2023-04-05T04:30:10.589Z,98.50
2023-04-05T04:32:58.861Z,98.50
2023-04-05T04:35:27.832Z,98.50
2023-04-05T04:37:59.879Z,98.50
2023-04-05T04:40:40.291Z,98.50
2023-04-05T04:43:27.224Z,98.50
2023-04-05T04:45:56.959Z,98.50
2023-04-05T04:48:23.790Z,98.50
2023-04-05T04:50:50.819Z,98.50
2023-04-05T04:53:18.801Z,98.50
2023-04-05T04:55:45.826Z,98.50
2023-04-05T04:58:13.678Z,98.50
2023-04-05T05:00:44.710Z,98.50
2023-04-05T05:03:12.258Z,98.50
2023-04-05T05:05:46.915Z,98.50
2023-04-05T05:08:14.296Z,98.50
2023-04-05T05:10:41.939Z,98.50
2023-04-05T05:13:09.541Z,98.50
2023-04-05T05:15:36.654Z,98.50
2023-04-05T05:18:03.379Z,98.50
2023-04-05T05:20:30.234Z,98.50
2023-04-05T05:22:58.453Z,98.50
2023-04-05T05:25:25.132Z,98.50
2023-04-05T05:27:51.780Z,98.50
2023-04-05T05:30:19.067Z,98.50
2023-04-05T05:32:45.817Z,98.50
2023-04-05T05:35:12.559Z,98.50
2023-04-05T05:37:39.673Z,98.50
2023-04-05T05:40:07.115Z,98.50
2023-04-05T05:42:34.344Z,98.50
2023-04-05T05:45:05.879Z,98.50
2023-04-05T05:47:32.953Z,98.50
2023-04-05T05:49:59.788Z,98.50
2023-04-05T05:52:26.787Z,98.50
2023-04-05T05:54:53.496Z,98.50
2023-04-05T05:57:20.465Z,98.50
2023-04-05T05:59:47.222Z,98.50
2023-04-05T06:02:14.526Z,98.50
2023-04-05T06:04:41.854Z,98.50
2023-04-05T06:07:08.757Z,98.50
2023-04-05T06:09:35.704Z,98.50
2023-04-05T06:12:02.896Z,98.50
2023-04-05T06:14:29.969Z,98.50
2023-04-05T06:16:56.947Z,98.50
2023-04-05T06:19:23.905Z,98.50
2023-04-05T06:21:50.821Z,98.50
2023-04-05T06:24:17.584Z,98.50
2023-04-05T06:26:44.449Z,98.50
2023-04-05T06:29:12.128Z,98.00
2023-04-05T06:31:39.079Z,98.50
2023-04-05T06:34:05.882Z,97.60
2023-04-05T06:36:34.085Z,97.40
2023-04-05T06:39:00.999Z,97.00
2023-04-05T06:41:28.022Z,96.90
2023-04-05T06:43:56.286Z,97.40
2023-04-05T06:46:23.691Z,96.20
2023-04-05T06:48:52.224Z,96.30
2023-04-05T06:51:19.201Z,97.00
2023-04-05T06:53:46.096Z,95.40
2023-04-05T06:56:12.833Z,96.10
2023-04-05T06:58:39.530Z,96.40
2023-04-05T07:01:06.671Z,96.40
2023-04-05T07:03:34.037Z,95.50
2023-04-05T07:06:01.324Z,95.70
2023-04-05T07:08:29.306Z,95.00
2023-04-05T07:10:56.052Z,95.10
2023-04-05T07:13:24.507Z,93.70
2023-04-05T07:15:52.102Z,93.90
2023-04-05T07:18:19.247Z,94.20
2023-04-05T07:20:49.094Z,92.70
2023-04-05T07:23:16.606Z,93.20
2023-04-05T07:25:43.989Z,91.90
2023-04-05T07:28:10.854Z,89.70
2023-04-05T07:30:37.865Z,91.10
2023-04-05T07:33:05.496Z,88.10
2023-04-05T07:35:32.415Z,89.30
2023-04-05T07:37:59.123Z,87.00
2023-04-05T07:40:25.869Z,85.10
2023-04-05T07:42:52.593Z,85.60
2023-04-05T07:45:19.479Z,88.00
2023-04-05T07:47:46.489Z,85.90
2023-04-05T07:50:15.453Z,85.80
2023-04-05T07:52:42.917Z,84.40
2023-04-05T07:55:10.238Z,84.90
2023-04-05T07:57:37.417Z,84.90
2023-04-05T08:00:10.945Z,84.60
2023-04-05T08:02:37.808Z,83.60
2023-04-05T08:05:05.478Z,83.10
2023-04-05T08:07:32.317Z,83.50
2023-04-05T08:10:00.151Z,82.10
2023-04-05T08:12:27.374Z,82.70
2023-04-05T08:14:54.356Z,81.70
2023-04-05T08:17:21.272Z,81.70
2023-04-05T08:19:49.413Z,80.30
2023-04-05T08:22:17.779Z,81.30
2023-04-05T08:24:44.616Z,81.90
2023-04-05T08:27:11.669Z,80.00
2023-04-05T08:29:38.639Z,79.90
2023-04-05T08:32:05.462Z,79.70
2023-04-05T08:34:32.188Z,80.00
2023-04-05T08:37:00.072Z,79.40
2023-04-05T08:39:26.897Z,78.00
2023-04-05T08:42:08.202Z,78.50
2023-04-05T08:44:37.453Z,77.70
2023-04-05T08:47:04.353Z,77.80
2023-04-05T08:49:31.152Z,78.80
2023-04-05T08:52:01.494Z,77.90
2023-04-05T08:54:28.214Z,77.70
2023-04-05T08:56:58.130Z,76.80
2023-04-05T08:59:25.537Z,80.70
2023-04-05T09:01:53.936Z,79.50
2023-04-05T09:04:27.341Z,77.00
2023-04-05T09:06:57.578Z,77.80
2023-04-05T09:09:25.362Z,76.20
2023-04-05T09:11:52.799Z,76.00
2023-04-05T09:14:20.830Z,78.70
2023-04-05T09:16:47.597Z,77.60
2023-04-05T09:19:14.727Z,79.50
2023-04-05T09:22:04.503Z,79.30
2023-04-05T09:24:34.695Z,76.20
2023-04-05T09:27:08.082Z,78.50
2023-04-05T09:29:35.210Z,79.30
2023-04-05T09:32:03.749Z,79.30
2023-04-05T09:34:32.410Z,78.10
2023-04-05T09:37:00.827Z,77.00
2023-04-05T09:39:32.598Z,77.60
2023-04-05T09:42:26.097Z,79.40
2023-04-05T09:45:05.779Z,76.40
2023-04-05T09:47:36.799Z,77.00
2023-04-05T09:50:21.964Z,73.40
2023-04-05T09:52:49.374Z,75.10
2023-04-05T09:55:27.842Z,75.30
2023-04-05T09:57:54.616Z,74.50
2023-04-05T10:00:22.764Z,75.40
2023-04-05T10:02:53.977Z,73.70
2023-04-05T10:05:24.577Z,74.30
2023-04-05T10:07:52.357Z,73.40
2023-04-05T10:10:19.318Z,74.60
2023-04-05T10:12:48.018Z,76.00
2023-04-05T10:15:15.892Z,72.00
2023-04-05T10:17:49.786Z,74.40
2023-04-05T10:20:18.142Z,76.30
2023-04-05T10:22:59.048Z,74.70
2023-04-05T10:25:41.302Z,73.70
2023-04-05T10:28:15.625Z,73.80
2023-04-05T10:30:47.816Z,74.40
2023-04-05T10:33:24.826Z,73.70
2023-04-05T10:36:00.600Z,75.40
2023-04-05T10:38:29.170Z,74.60
2023-04-05T10:41:05.607Z,74.50
2023-04-05T10:43:34.376Z,74.10
2023-04-05T10:46:04.169Z,72.30
2023-04-05T10:48:37.205Z,73.80
2023-04-05T10:51:04.538Z,74.50
2023-04-05T10:53:35.128Z,73.40
2023-04-05T10:56:02.064Z,73.70
2023-04-05T10:58:29.911Z,72.90
2023-04-05T11:00:58.103Z,73.50
2023-04-05T11:03:51.979Z,72.70
2023-04-05T11:06:22.506Z,73.50
2023-04-05T11:08:52.842Z,74.60
2023-04-05T11:11:22.398Z,74.20
2023-04-05T11:13:56.257Z,74.70
2023-04-05T11:16:25.912Z,74.10
2023-04-05T11:18:53.818Z,76.70
2023-04-05T11:21:29.196Z,74.70
2023-04-05T11:24:07.181Z,74.00
2023-04-05T11:26:52.925Z,76.70
2023-04-05T11:29:39.595Z,73.20
2023-04-05T11:32:12.555Z,73.50
2023-04-05T11:34:42.839Z,73.60
2023-04-05T11:37:09.738Z,73.30
2023-04-05T11:39:39.079Z,73.20
2023-04-05T11:42:09.666Z,73.30
2023-04-05T11:44:44.034Z,71.20
2023-04-05T11:47:11.664Z,72.40
2023-04-05T11:49:39.657Z,73.20
2023-04-05T11:52:17.737Z,72.40
2023-04-05T11:54:49.685Z,70.70
2023-04-05T11:57:23.067Z,70.30
2023-04-05T11:59:51.914Z,73.10
2023-04-05T12:02:19.031Z,70.80
2023-04-05T12:04:53.389Z,70.00
2023-04-05T12:07:20.483Z,70.90
2023-04-05T12:10:17.326Z,71.20
2023-04-05T12:12:45.059Z,71.10
2023-04-05T12:15:14.469Z,70.10
2023-04-05T12:17:45.891Z,72.20
2023-04-05T12:20:14.736Z,68.90
2023-04-05T12:22:43.924Z,72.30
2023-04-05T12:25:11.467Z,73.10
2023-04-05T12:27:39.089Z,72.90
2023-04-05T12:30:17.420Z,70.20
2023-04-05T12:32:52.219Z,70.50
2023-04-05T12:35:32.176Z,69.50
2023-04-05T12:38:00.909Z,70.80
2023-04-05T12:40:30.190Z,73.10
2023-04-05T12:43:06.353Z,71.60
2023-04-05T12:45:40.558Z,68.80
2023-04-05T12:48:10.632Z,69.60
2023-04-05T12:50:46.394Z,69.60
2023-04-05T12:53:21.810Z,71.00
2023-04-05T12:55:52.571Z,72.40
2023-04-05T12:58:31.800Z,73.40
2023-04-05T13:00:58.937Z,72.50
2023-04-05T13:03:27.079Z,71.80
2023-04-05T13:05:54.149Z,73.20
2023-04-05T13:08:21.070Z,72.30
2023-04-05T13:10:49.104Z,72.20
2023-04-05T13:13:16.999Z,70.60
2023-04-05T13:15:44.806Z,70.50
2023-04-05T13:18:14.712Z,71.00
2023-04-05T13:20:45.598Z,72.10
2023-04-05T13:23:13.174Z,71.40
2023-04-05T13:25:45.494Z,70.30
2023-04-05T13:28:12.335Z,71.30
2023-04-05T13:30:39.238Z,73.70
2023-04-05T13:33:06.085Z,72.80
2023-04-05T13:35:33.220Z,72.00
2023-04-05T13:38:04.021Z,70.90
2023-04-05T13:40:32.226Z,70.00
2023-04-05T13:42:59.063Z,70.30
2023-04-05T13:45:25.822Z,68.70
2023-04-05T13:47:52.464Z,68.00
2023-04-05T13:50:19.301Z,68.70
2023-04-05T13:52:46.140Z,68.20
2023-04-05T13:55:15.280Z,67.50
2023-04-05T13:57:42.091Z,67.90
2023-04-05T14:00:09.735Z,65.40
2023-04-05T14:02:36.708Z,66.80
2023-04-05T14:05:03.784Z,68.90
2023-04-05T14:07:30.923Z,70.60
2023-04-05T14:09:57.641Z,71.30
2023-04-05T14:12:24.809Z,71.80
2023-04-05T14:14:51.749Z,72.00
2023-04-05T14:17:18.573Z,70.30
2023-04-05T14:19:45.365Z,69.50
2023-04-05T14:22:12.258Z,70.90
2023-04-05T14:24:38.961Z,69.80
2023-04-05T14:27:05.632Z,69.50
2023-04-05T14:29:33.117Z,70.60
2023-04-05T14:31:59.859Z,69.10
2023-04-05T14:34:26.573Z,68.70
2023-04-05T14:36:53.335Z,71.40
2023-04-05T14:39:20.069Z,70.40
2023-04-05T14:41:52.450Z,72.00
2023-04-05T14:44:19.186Z,71.70
2023-04-05T14:46:46.139Z,70.20
2023-04-05T14:49:12.797Z,70.60
2023-04-05T14:51:40.225Z,69.30
2023-04-05T14:54:07.024Z,70.40
2023-04-05T14:56:33.836Z,70.90
2023-04-05T14:59:00.925Z,69.90
2023-04-05T15:01:27.672Z,68.90
2023-04-05T15:03:54.783Z,68.20
2023-04-05T15:06:21.971Z,68.00
2023-04-05T15:08:48.712Z,70.00
2023-04-05T15:11:15.663Z,70.20
2023-04-05T15:13:42.306Z,70.00
2023-04-05T15:16:09.494Z,70.30
2023-04-05T15:18:36.212Z,69.90
2023-04-05T15:21:03.111Z,69.90
2023-04-05T15:23:30.989Z,69.90
2023-04-05T15:25:57.662Z,69.60
2023-04-05T15:28:24.387Z,70.70
2023-04-05T15:30:51.298Z,70.80
2023-04-05T15:33:18.153Z,72.20
2023-04-05T15:35:44.914Z,72.00
2023-04-05T15:38:11.718Z,71.20
2023-04-05T15:40:39.701Z,72.60
2023-04-05T15:43:06.396Z,74.50
2023-04-05T15:45:33.500Z,74.60
2023-04-05T15:48:00.342Z,74.40
2023-04-05T15:50:27.180Z,75.00
2023-04-05T15:52:53.882Z,74.30
2023-04-05T15:55:20.867Z,75.00
2023-04-05T15:57:49.587Z,73.90
2023-04-05T16:00:16.569Z,74.70
2023-04-05T16:02:43.473Z,74.70
2023-04-05T16:05:10.662Z,74.60
2023-04-05T16:07:37.503Z,73.30
2023-04-05T16:10:05.175Z,75.20
2023-04-05T16:12:31.897Z,75.70
2023-04-05T16:14:58.665Z,75.60
2023-04-05T16:17:25.899Z,75.60
2023-04-05T16:19:54.599Z,74.80
2023-04-05T16:22:22.646Z,73.90
2023-04-05T16:24:49.316Z,73.40
2023-04-05T16:27:16.632Z,73.70
2023-04-05T16:29:43.496Z,75.00
2023-04-05T16:32:10.555Z,74.70
2023-04-05T16:34:37.325Z,74.10
2023-04-05T16:37:04.003Z,73.80
2023-04-05T16:39:30.703Z,74.00
2023-04-05T16:41:57.566Z,75.10
2023-04-05T16:44:24.431Z,75.50
2023-04-05T16:46:52.373Z,74.90
2023-04-05T16:49:19.069Z,76.00
2023-04-05T16:51:45.844Z,76.50
2023-04-05T16:54:12.536Z,76.30
2023-04-05T16:56:39.263Z,75.80
2023-04-05T16:59:07.965Z,77.20
2023-04-05T17:01:35.539Z,76.70
2023-04-05T17:04:02.187Z,77.30
2023-04-05T17:06:28.993Z,77.90
2023-04-05T17:08:55.757Z,77.80
2023-04-05T17:11:22.673Z,77.50
2023-04-05T17:13:49.488Z,78.70
2023-04-05T17:16:16.756Z,78.90
2023-04-05T17:18:43.581Z,79.00
2023-04-05T17:21:12.359Z,78.50
2023-04-05T17:23:39.788Z,79.90
2023-04-05T17:26:06.469Z,80.00
2023-04-05T17:28:34.699Z,80.10
2023-04-05T17:31:02.142Z,80.30
2023-04-05T17:33:29.131Z,80.40
2023-04-05T17:35:55.993Z,80.80
2023-04-05T17:38:22.787Z,81.20
2023-04-05T17:40:49.518Z,80.80
2023-04-05T17:43:16.392Z,80.70
2023-04-05T17:45:43.152Z,81.70
2023-04-05T17:48:09.978Z,82.50
2023-04-05T17:50:37.381Z,82.00
2023-04-05T17:53:04.291Z,82.40
2023-04-05T17:55:33.630Z,81.90
2023-04-05T17:58:00.394Z,81.90
2023-04-05T18:00:27.079Z,82.30
2023-04-05T18:02:54.011Z,81.70
2023-04-05T18:05:20.804Z,82.20
2023-04-05T18:07:47.682Z,83.00
2023-04-05T18:10:14.377Z,83.80
2023-04-05T18:12:41.448Z,83.60
2023-04-05T18:15:08.671Z,82.80
2023-04-05T18:17:35.614Z,83.00
2023-04-05T18:20:02.593Z,82.70
2023-04-05T18:22:32.437Z,82.60
2023-04-05T18:24:59.197Z,82.90
2023-04-05T18:27:26.196Z,83.10
2023-04-05T18:29:52.831Z,82.90
2023-04-05T18:32:19.570Z,83.50
2023-04-05T18:34:46.349Z,83.40
2023-04-05T18:37:13.014Z,83.50
2023-04-05T18:39:39.681Z,83.50
2023-04-05T18:42:06.393Z,84.00
2023-04-05T18:44:33.135Z,84.70
2023-04-05T18:47:01.040Z,85.40
2023-04-05T18:49:27.916Z,86.00
2023-04-05T18:51:55.829Z,85.20
2023-04-05T18:54:22.798Z,85.10
2023-04-05T18:56:49.565Z,85.40
2023-04-05T18:59:17.385Z,85.40
2023-04-05T19:01:44.409Z,85.60
2023-04-05T19:04:11.253Z,85.50
2023-04-05T19:06:37.880Z,86.20
2023-04-05T19:09:04.666Z,86.50
2023-04-05T19:11:31.559Z,86.30
2023-04-05T19:14:00.407Z,86.30
2023-04-05T19:16:27.123Z,86.30
2023-04-05T19:18:53.920Z,87.20
2023-04-05T19:21:20.590Z,87.80
2023-04-05T19:23:47.312Z,88.20
2023-04-05T19:26:13.929Z,88.80
2023-04-05T19:28:40.715Z,89.30
2023-04-05T19:31:09.222Z,89.00
2023-04-05T19:33:36.149Z,89.80
2023-04-05T19:36:02.887Z,90.00
2023-04-05T19:38:29.658Z,90.70
2023-04-05T19:40:56.512Z,91.40
2023-04-05T19:43:24.411Z,91.90
2023-04-05T19:45:57.305Z,92.00
2023-04-05T19:48:35.978Z,92.30
2023-04-05T19:51:07.506Z,92.70
2023-04-05T19:53:41.717Z,93.30
2023-04-05T19:56:17.743Z,93.40
2023-04-05T19:58:44.967Z,93.50
2023-04-05T20:01:11.772Z,93.60
2023-04-05T20:03:42.365Z,93.90
2023-04-05T20:06:12.821Z,94.30
2023-04-05T20:08:41.124Z,94.30
2023-04-05T20:11:11.773Z,94.30
2023-04-05T20:13:44.967Z,94.10
2023-04-05T20:16:13.174Z,94.20
2023-04-05T20:18:40.531Z,94.80
2023-04-05T20:21:07.229Z,94.70
2023-04-05T20:23:36.728Z,95.40
2023-04-05T20:26:08.746Z,96.60
2023-04-05T20:28:38.705Z,97.40
2023-04-05T20:31:10.141Z,98.30
2023-04-05T20:33:39.660Z,98.50
2023-04-05T20:36:11.218Z,98.50
2023-04-05T20:38:42.870Z,98.50
2023-04-05T20:41:11.620Z,98.50
2023-04-05T20:43:39.799Z,98.50
2023-04-05T20:46:07.950Z,98.50
2023-04-05T20:48:36.151Z,98.50
2023-04-05T20:51:04.822Z,98.50
2023-04-05T20:53:31.658Z,98.50
2023-04-05T20:55:59.402Z,98.50
2023-04-05T20:58:27.570Z,98.50
2023-04-05T21:00:55.109Z,98.50
2023-04-05T21:03:22.002Z,98.50
2023-04-05T21:05:48.893Z,98.50
2023-04-05T21:08:16.290Z,98.50
2023-04-05T21:10:43.051Z,98.50
2023-04-05T21:13:09.713Z,98.50
2023-04-05T21:15:36.701Z,98.50
2023-04-05T21:18:05.766Z,98.50
2023-04-05T21:20:32.588Z,98.50
2023-04-05T21:22:59.557Z,98.50
2023-04-05T21:25:26.755Z,98.50
2023-04-05T21:27:53.476Z,98.50
2023-04-05T21:30:20.274Z,98.50
2023-04-05T21:32:46.989Z,98.50
2023-04-05T21:35:13.655Z,98.50
2023-04-05T21:37:40.353Z,98.50
2023-04-05T21:40:07.994Z,98.30
2023-04-05T21:42:34.703Z,98.20
2023-04-05T21:45:01.560Z,98.30
2023-04-05T21:47:28.315Z,98.50
2023-04-05T21:49:55.039Z,98.50
2023-04-05T21:52:21.678Z,98.50
2023-04-05T21:54:48.346Z,98.50
2023-04-05T21:57:15.084Z,98.50
2023-04-05T21:59:42.026Z,98.50
2023-04-05T22:02:08.962Z,98.50
2023-04-05T22:04:35.803Z,98.50
2023-04-05T22:07:02.480Z,98.50
2023-04-05T22:09:29.151Z,98.50
2023-04-05T22:11:56.997Z,98.50
2023-04-05T22:14:23.835Z,98.50
2023-04-05T22:16:50.605Z,98.50
2023-04-05T22:19:17.427Z,98.50
2023-04-05T22:21:44.196Z,98.50
2023-04-05T22:24:11.328Z,98.50
2023-04-05T22:26:41.987Z,98.50
2023-04-05T22:29:09.074Z,98.50
2023-04-05T22:31:36.085Z,98.50
2023-04-05T22:34:02.846Z,98.50
2023-04-05T22:36:29.530Z,98.50
2023-04-05T22:38:56.261Z,98.50
2023-04-05T22:41:22.942Z,98.50
2023-04-05T22:43:49.569Z,98.50
2023-04-05T22:46:16.408Z,98.50
2023-04-05T22:48:43.950Z,98.50
2023-04-05T22:51:11.058Z,98.50
2023-04-05T22:53:37.762Z,98.50
2023-04-05T22:56:04.554Z,98.50
2023-04-05T22:58:32.746Z,98.50
2023-04-05T23:01:00.062Z,98.50
2023-04-05T23:03:26.749Z,98.50
2023-04-05T23:05:54.065Z,98.50
2023-04-05T23:08:21.134Z,98.50
2023-04-05T23:10:48.306Z,98.50
2023-04-05T23:13:15.353Z,98.50
2023-04-05T23:15:42.157Z,98.50
2023-04-05T23:18:08.998Z,98.50
2023-04-05T23:20:36.012Z,98.50
2023-04-05T23:23:02.659Z,98.50
2023-04-05T23:25:29.326Z,98.50
2023-04-05T23:27:56.059Z,98.50
2023-04-05T23:30:22.748Z,98.50
2023-04-05T23:32:50.073Z,98.50
2023-04-05T23:35:17.063Z,98.50
2023-04-05T23:37:43.768Z,98.50
2023-04-05T23:40:11.165Z,98.50
2023-04-05T23:42:37.851Z,98.50
2023-04-05T23:45:08.458Z,98.50
2023-04-05T23:47:36.687Z,98.50
2023-04-05T23:50:03.723Z,98.50
2023-04-05T23:52:30.485Z,98.50
2023-04-05T23:54:57.192Z,98.50
2023-04-05T23:57:23.862Z,98.50
2023-04-05T23:59:52.013Z,98.50
